Time;durP1;ratioP1;P1;durP2;ratioP2;P2;SDS_P1;SDS_P2;PMS_P1;PMS_P2;Temp;Humidity;BMP_temperature;BMP_pressure;BME280_temperature;BME280_humidity;BME280_pressure;Samples;Min_cycle;Max_cycle;Signal;HPM_P1;HPM_P2
2022/08/04 00:02:41;;;;;;;1.95;1.30;;;26.10;52.90;;;;;;5028975;28;20139;-50
2022/08/04 00:05:34;;;;;;;4.03;1.52;;;26.10;52.80;;;;;;5030440;28;20050;-50
2022/08/04 00:08:15;;;;;;;2.78;1.20;;;26.00;52.90;;;;;;5025428;28;20042;-52
2022/08/04 00:10:48;;;;;;;2.78;1.13;;;26.00;52.80;;;;;;5026675;28;20044;-51
2022/08/04 00:13:24;;;;;;;2.33;1.48;;;26.00;53.00;;;;;;5030708;28;20448;-52
2022/08/04 00:15:55;;;;;;;3.13;1.50;;;25.90;53.20;;;;;;5030053;28;20076;-49
2022/08/04 00:18:32;;;;;;;2.33;1.63;;;25.90;52.90;;;;;;5007694;28;20069;-48
2022/08/04 00:21:06;;;;;;;1.70;1.13;;;25.80;53.30;;;;;;5029891;28;20041;-52
2022/08/04 00:23:44;;;;;;;3.05;1.60;;;25.80;53.20;;;;;;5030243;28;20041;-49
2022/08/04 00:26:34;;;;;;;2.78;1.23;;;25.80;53.10;;;;;;5022635;28;20056;-52
2022/08/04 00:29:07;;;;;;;3.35;1.80;;;25.80;53.20;;;;;;5024331;28;20124;-52
2022/08/04 00:31:35;;;;;;;3.13;1.27;;;25.70;53.20;;;;;;5023650;28;20041;-52
2022/08/04 00:34:30;;;;;;;3.90;1.63;;;25.70;53.20;;;;;;5029525;28;20053;-50
2022/08/04 00:37:00;;;;;;;2.10;1.65;;;25.60;53.50;;;;;;5029837;28;20045;-48
2022/08/04 00:39:29;;;;;;;2.10;1.50;;;25.50;53.20;;;;;;5027355;28;20033;-50
2022/08/04 00:42:28;;;;;;;4.07;1.70;;;25.50;53.40;;;;;;5027512;28;20041;-50
2022/08/04 00:45:31;;;;;;;1.88;1.52;;;25.50;53.80;;;;;;5030005;28;20048;-52
2022/08/04 00:48:46;;;;;;;2.25;1.27;;;25.50;53.50;;;;;;5031058;28;20502;-49
2022/08/04 00:51:40;;;;;;;3.03;1.27;;;25.40;53.70;;;;;;5032901;28;20516;-52
2022/08/04 00:54:30;;;;;;;3.80;1.88;;;25.40;53.70;;;;;;5031403;28;20045;-51
2022/08/04 00:57:13;;;;;;;2.92;1.58;;;25.30;53.90;;;;;;5031548;28;20041;-48
2022/08/04 01:00:13;;;;;;;4.68;1.80;;;25.30;54.00;;;;;;5032934;28;20038;-52
2022/08/04 01:03:01;;;;;;;2.75;2.03;;;25.20;53.50;;;;;;5030583;28;20046;-48
2022/08/04 01:06:16;;;;;;;3.45;1.50;;;25.20;53.60;;;;;;5021720;28;20033;-51
2022/08/04 01:08:58;;;;;;;2.58;1.52;;;25.20;54.10;;;;;;4933278;29;20051;-49
2022/08/04 01:11:50;;;;;;;3.50;2.10;;;25.10;53.90;;;;;;5005997;28;20473;-52
2022/08/04 01:15:04;;;;;;;5.95;1.48;;;25.00;53.50;;;;;;5023635;28;20065;-49
2022/08/04 01:17:36;;;;;;;5.70;2.30;;;25.00;54.10;;;;;;5008956;28;20099;-52
2022/08/04 01:20:07;;;;;;;4.05;2.03;;;24.90;53.70;;;;;;5032818;28;20038;-52
2022/08/04 01:23:18;;;;;;;3.05;1.52;;;24.90;54.10;;;;;;5030174;28;20053;-52
2022/08/04 01:26:22;;;;;;;5.43;2.00;;;24.90;54.00;;;;;;4950238;29;20138;-49
2022/08/04 01:29:13;;;;;;;3.83;1.63;;;24.90;54.30;;;;;;5013349;28;20049;-48
2022/08/04 01:32:01;;;;;;;7.25;1.92;;;24.80;54.20;;;;;;5032389;28;20079;-52
2022/08/04 01:34:46;;;;;;;2.88;1.52;;;24.90;54.70;;;;;;5025742;28;20088;-48
2022/08/04 01:37:46;;;;;;;2.95;1.40;;;24.70;54.80;;;;;;5031550;28;20052;-49
2022/08/04 01:40:20;;;;;;;3.70;1.63;;;24.70;54.80;;;;;;5032556;28;20108;-48
2022/08/04 01:42:54;;;;;;;2.30;1.40;;;24.70;54.40;;;;;;5022995;28;20076;-52
2022/08/04 01:45:22;;;;;;;;;;;24.60;54.80;;;;;;5024035;28;20120;-52
2022/08/04 01:47:54;;;;;;;3.03;2.30;;;24.70;53.60;;;;;;5032469;28;20008;-52
2022/08/04 01:50:22;;;;;;;4.07;1.73;;;24.60;54.30;;;;;;5031954;28;20048;-48
2022/08/04 01:52:56;;;;;;;2.13;1.30;;;24.60;54.60;;;;;;5026070;28;20041;-52
2022/08/04 01:55:26;;;;;;;4.53;1.83;;;24.60;55.20;;;;;;5031130;28;20382;-52
2022/08/04 01:58:16;;;;;;;5.53;2.15;;;24.50;55.00;;;;;;5031943;28;20041;-47
2022/08/04 02:00:55;;;;;;;2.30;1.90;;;24.50;55.10;;;;;;5027196;28;20037;-50
2022/08/04 02:03:22;;;;;;;3.78;1.98;;;24.50;55.60;;;;;;5030175;28;20044;-52
2022/08/04 02:06:22;;;;;;;3.55;1.60;;;24.50;55.30;;;;;;5031491;28;20124;-51
2022/08/04 02:09:12;;;;;;;2.85;1.42;;;24.50;55.80;;;;;;5031940;28;20049;-52
2022/08/04 02:12:13;;;;;;;2.35;1.55;;;24.50;55.60;;;;;;4990671;28;20417;-52
2022/08/04 02:14:55;;;;;;;3.10;1.70;;;24.50;55.80;;;;;;5026789;28;20569;-47
2022/08/04 02:17:45;;;;;;;5.45;2.00;;;24.50;56.00;;;;;;5031869;28;20110;-49
2022/08/04 02:20:25;;;;;;;6.80;1.75;;;24.40;55.80;;;;;;5025532;28;20079;-49
2022/08/04 02:23:04;;;;;;;1.95;1.73;;;24.40;55.80;;;;;;5031421;28;20075;-51
2022/08/04 02:25:59;;;;;;;4.95;2.00;;;24.40;56.00;;;;;;5008614;28;20049;-51
2022/08/04 02:29:05;;;;;;;1.63;1.27;;;24.40;55.90;;;;;;5025981;28;20485;-51
2022/08/04 02:31:58;;;;;;;2.80;1.73;;;24.40;56.00;;;;;;5031103;28;20041;-49
2022/08/04 02:34:46;;;;;;;3.47;1.67;;;24.30;55.80;;;;;;5001880;28;20077;-48
2022/08/04 02:37:16;;;;;;;2.40;1.85;;;24.30;56.00;;;;;;5027408;28;20095;-47
2022/08/04 02:39:46;;;;;;;4.88;1.83;;;24.20;55.80;;;;;;5027228;28;20088;-49
2022/08/04 02:42:21;;;;;;;2.05;1.50;;;24.20;55.70;;;;;;5031030;28;20044;-48
2022/08/04 02:44:50;;;;;;;3.53;1.60;;;24.20;56.00;;;;;;5031395;28;20049;-48
2022/08/04 02:47:20;;;;;;;3.63;2.08;;;24.10;55.80;;;;;;5024127;28;20034;-50
2022/08/04 02:49:50;;;;;;;3.85;1.35;;;24.00;56.00;;;;;;5030807;28;20049;-52
2022/08/04 02:52:25;;;;;;;4.22;1.65;;;24.00;55.80;;;;;;5031024;28;20409;-49
2022/08/04 02:54:57;;;;;;;2.60;1.70;;;24.00;55.90;;;;;;5027690;28;20042;-48
2022/08/04 02:57:28;;;;;;;7.43;1.60;;;24.00;56.10;;;;;;5026094;28;20051;-51
2022/08/04 03:00:12;;;;;;;3.47;1.52;;;23.90;56.20;;;;;;5028121;28;20041;-52
2022/08/04 03:03:06;;;;;;;2.95;1.73;;;23.90;56.50;;;;;;5030858;28;20042;-48
2022/08/04 03:05:57;;;;;;;3.78;1.67;;;23.90;56.40;;;;;;5028461;28;20042;-48
2022/08/04 03:08:48;;;;;;;4.07;1.73;;;23.80;56.00;;;;;;5019731;28;20041;-51
2022/08/04 03:11:48;;;;;;;6.22;1.73;;;23.80;56.30;;;;;;5030560;28;20049;-52
2022/08/04 03:14:33;;;;;;;3.17;1.30;;;23.70;56.60;;;;;;5028292;28;20079;-48
2022/08/04 03:17:41;;;;;;;2.70;1.48;;;23.70;57.00;;;;;;5023571;28;20091;-49
2022/08/04 03:20:50;;;;;;;2.40;1.58;;;23.70;56.90;;;;;;4937674;28;20057;-51
2022/08/04 03:23:42;;;;;;;3.92;1.70;;;23.60;56.60;;;;;;5030967;28;20049;-51
2022/08/04 03:26:47;;;;;;;5.10;2.60;;;23.60;56.70;;;;;;5024853;28;20399;-49
2022/08/04 03:29:35;;;;;;;2.83;1.40;;;23.50;56.80;;;;;;4975840;28;20107;-48
2022/08/04 03:32:50;;;;;;;2.72;1.30;;;23.50;56.50;;;;;;5030521;28;20044;-52
2022/08/04 03:36:00;;;;;;;3.03;1.27;;;23.50;56.90;;;;;;5026320;28;20041;-52
2022/08/04 03:39:03;;;;;;;3.55;1.73;;;23.50;57.00;;;;;;5021190;28;20453;-51
2022/08/04 03:42:08;;;;;;;5.30;1.80;;;23.40;56.90;;;;;;5028869;28;20069;-52
2022/08/04 03:45:27;;;;;;;2.85;1.20;;;23.40;57.20;;;;;;5025560;28;20137;-52
2022/08/04 03:48:14;;;;;;;3.05;1.50;;;23.30;56.90;;;;;;5027518;28;20494;-49
2022/08/04 03:54:16;;;;;;;2.03;1.48;;;23.20;56.80;;;;;;5024124;28;20558;-52
2022/08/04 03:57:10;;;;;;;4.15;1.60;;;23.20;56.70;;;;;;5027234;28;20050;-51
2022/08/04 03:59:58;;;;;;;2.83;1.33;;;23.20;57.40;;;;;;5024695;28;20065;-47
2022/08/04 04:03:03;;;;;;;3.08;1.95;;;23.20;57.40;;;;;;5024642;28;20048;-52
2022/08/04 04:05:38;;;;;;;4.15;1.65;;;23.10;57.20;;;;;;5027554;28;20091;-48
2022/08/04 04:09:01;;;;;;;2.55;1.35;;;23.10;57.00;;;;;;5030303;28;20391;-52
2022/08/04 04:11:52;;;;;;;2.08;1.52;;;23.10;57.40;;;;;;5010162;28;20132;-52
2022/08/04 04:14:48;;;;;;;4.00;2.17;;;23.10;57.50;;;;;;5012914;28;20121;-47
2022/08/04 04:17:20;;;;;;;2.05;1.50;;;23.10;57.90;;;;;;5012218;28;20099;-47
2022/08/04 04:19:53;;;;;;;2.95;1.40;;;23.10;57.30;;;;;;5029679;28;20383;-48
2022/08/04 04:22:58;;;;;;;3.30;1.77;;;23.00;57.70;;;;;;5026369;28;20042;-50
2022/08/04 04:25:49;;;;;;;4.72;2.13;;;23.00;58.10;;;;;;5024391;28;20120;-51
2022/08/04 04:28:34;;;;;;;5.40;1.60;;;23.00;58.20;;;;;;5032774;28;20052;-50
2022/08/04 04:31:17;;;;;;;4.18;1.48;;;23.00;58.30;;;;;;5026033;28;20049;-49
2022/08/04 04:33:53;;;;;;;5.28;1.73;;;23.00;58.30;;;;;;5030875;28;20104;-52
2022/08/04 04:36:38;;;;;;;3.38;1.60;;;23.00;58.80;;;;;;5032711;28;20049;-48
2022/08/04 04:39:32;;;;;;;3.72;1.60;;;23.00;58.80;;;;;;5030660;28;20035;-52
2022/08/04 04:42:18;;;;;;;2.45;1.33;;;23.00;59.00;;;;;;5031241;28;20793;-49
2022/08/04 04:44:57;;;;;;;4.70;2.25;;;23.00;59.10;;;;;;5032807;28;20045;-52
2022/08/04 04:48:07;;;;;;;3.03;1.60;;;23.10;59.50;;;;;;5032538;28;20374;-51
2022/08/04 04:51:19;;;;;;;2.88;1.67;;;23.00;59.40;;;;;;5029863;28;20038;-49
2022/08/04 04:54:13;;;;;;;3.03;1.88;;;23.10;59.50;;;;;;5028162;28;20037;-50
2022/08/04 04:56:50;;;;;;;4.03;1.55;;;23.10;59.50;;;;;;5031500;28;20611;-51
2022/08/04 04:59:21;;;;;;;3.03;1.70;;;23.10;59.50;;;;;;5030319;28;20046;-50
2022/08/04 05:01:48;;;;;;;5.30;1.92;;;23.10;59.70;;;;;;5028955;28;20034;-50
2022/08/04 05:04:15;;;;;;;6.60;2.97;;;23.20;59.30;;;;;;5031170;28;20037;-50
2022/08/04 05:07:20;;;;;;;3.17;1.90;;;23.20;59.60;;;;;;5030835;28;20457;-52
2022/08/04 05:10:18;;;;;;;3.47;1.77;;;23.20;60.50;;;;;;4975274;28;20049;-52
2022/08/04 05:13:23;;;;;;;4.82;1.40;;;23.30;60.50;;;;;;5028203;28;20494;-49
2022/08/04 05:16:55;;;;;;;2.38;1.63;;;23.40;60.60;;;;;;5029438;28;20138;-52
2022/08/04 05:20:05;;;;;;;3.03;1.38;;;23.40;60.60;;;;;;4998634;28;20608;-49
2022/08/04 05:22:39;;;;;;;3.47;1.80;;;23.50;60.90;;;;;;5020117;28;20061;-52
2022/08/04 05:25:24;;;;;;;5.65;2.53;;;23.60;60.80;;;;;;5029988;28;20065;-51
2022/08/04 05:27:59;;;;;;;6.43;2.10;;;23.60;60.70;;;;;;5022243;28;20066;-52
2022/08/04 05:30:29;;;;;;;3.35;1.60;;;23.70;60.90;;;;;;5028215;28;20049;-52
2022/08/04 05:33:09;;;;;;;2.85;1.83;;;23.70;60.70;;;;;;5030193;28;20057;-49
2022/08/04 05:35:42;;;;;;;3.85;1.77;;;23.80;62.00;;;;;;5027823;28;20053;-51
2022/08/04 05:38:34;;;;;;;3.65;1.70;;;23.80;60.50;;;;;;5007358;28;20132;-52
2022/08/04 05:41:02;;;;;;;5.75;1.88;;;23.90;60.80;;;;;;5032422;28;20685;-50
2022/08/04 05:43:33;;;;;;;4.55;2.28;;;24.00;60.20;;;;;;5025993;28;20038;-51
2022/08/04 05:46:00;;;;;;;4.53;2.25;;;24.00;60.60;;;;;;5025671;28;20095;-50
2022/08/04 05:48:28;;;;;;;2.85;2.00;;;24.10;60.70;;;;;;5030111;28;20498;-51
2022/08/04 05:50:56;;;;;;;4.75;1.90;;;24.20;60.90;;;;;;5029738;28;20048;-48
2022/08/04 05:53:27;;;;;;;3.58;2.50;;;24.20;61.00;;;;;;5028509;28;20038;-48
2022/08/04 05:55:58;;;;;;;6.68;2.92;;;24.30;60.90;;;;;;5028330;28;20042;-51
2022/08/04 05:58:29;;;;;;;2.50;1.77;;;24.40;61.00;;;;;;5011248;28;20057;-49
2022/08/04 06:00:59;;;;;;;4.90;2.55;;;24.40;61.20;;;;;;5030470;28;20280;-52
2022/08/04 06:03:28;;;;;;;9.73;2.97;;;24.50;61.30;;;;;;5030486;28;20555;-52
2022/08/04 06:05:56;;;;;;;9.45;2.30;;;24.50;61.20;;;;;;5027476;28;20567;-51
2022/08/04 06:08:23;;;;;;;6.43;1.83;;;24.60;61.50;;;;;;5030751;28;20095;-52
2022/08/04 06:10:54;;;;;;;5.38;2.33;;;24.70;61.60;;;;;;5029591;28;20049;-48
2022/08/04 06:13:28;;;;;;;10.20;3.28;;;24.70;61.60;;;;;;5026718;28;20045;-53
2022/08/04 06:16:18;;;;;;;4.97;2.55;;;24.80;61.90;;;;;;5029436;28;20040;-49
2022/08/04 06:19:02;;;;;;;8.23;2.13;;;24.90;61.20;;;;;;5026995;28;20526;-52
2022/08/04 06:21:53;;;;;;;7.53;2.60;;;25.00;60.80;;;;;;5028864;28;20049;-49
2022/08/04 06:24:23;;;;;;;5.82;2.53;;;25.10;60.80;;;;;;5027284;28;20448;-47
2022/08/04 06:26:51;;;;;;;6.53;2.53;;;25.20;60.60;;;;;;5029610;28;20596;-52
2022/08/04 06:29:33;;;;;;;7.18;2.45;;;25.30;59.90;;;;;;5028631;28;20049;-52
2022/08/04 06:32:02;;;;;;;6.80;2.30;;;25.40;60.00;;;;;;5029767;28;20052;-48
2022/08/04 06:34:54;;;;;;;7.72;2.15;;;25.50;59.20;;;;;;5029714;28;20133;-52
2022/08/04 06:37:22;;;;;;;6.75;2.83;;;25.60;58.80;;;;;;5022500;28;20065;-49
2022/08/04 06:40:11;;;;;;;4.80;2.10;;;25.70;58.30;;;;;;5027547;28;20057;-52
2022/08/04 06:43:03;;;;;;;5.88;2.28;;;25.80;58.00;;;;;;5020443;28;20038;-49
2022/08/04 06:45:33;;;;;;;;;;;25.90;58.60;;;;;;5029709;28;20091;-51
2022/08/04 06:48:01;;;;;;;5.88;1.77;;;26.10;57.90;;;;;;5029704;28;19921;-51
2022/08/04 06:50:31;;;;;;;5.90;2.50;;;26.10;57.30;;;;;;5028623;28;20049;-49
2022/08/04 06:53:18;;;;;;;3.50;1.40;;;26.30;56.50;;;;;;5030344;28;20127;-49
2022/08/04 06:55:47;;;;;;;4.95;1.80;;;26.40;56.00;;;;;;5026727;28;20069;-48
2022/08/04 06:58:15;;;;;;;2.65;1.90;;;26.50;56.10;;;;;;5030997;28;20111;-48
2022/08/04 07:00:47;;;;;;;2.85;1.30;;;26.50;55.60;;;;;;5026142;28;20034;-53
2022/08/04 07:03:17;;;;;;;8.65;2.45;;;26.70;55.30;;;;;;5029043;28;20041;-52
2022/08/04 07:05:47;;;;;;;4.72;1.85;;;26.80;55.70;;;;;;5011458;28;20045;-52
2022/08/04 07:08:14;;;;;;;3.50;1.98;;;26.90;55.80;;;;;;5031106;28;20050;-52
2022/08/04 07:10:41;;;;;;;4.13;1.95;;;26.90;55.10;;;;;;5026331;28;20072;-52
2022/08/04 07:13:09;;;;;;;6.03;1.70;;;27.00;54.30;;;;;;5028820;28;20076;-48
2022/08/04 07:15:40;;;;;;;4.90;1.63;;;27.10;53.90;;;;;;5028596;28;20091;-52
2022/08/04 07:18:07;;;;;;;4.53;1.27;;;27.20;53.50;;;;;;5029209;28;20052;-51
2022/08/04 07:20:33;;;;;;;1.80;1.48;;;27.30;53.30;;;;;;5022949;28;20053;-49
2022/08/04 07:23:04;;;;;;;5.38;1.95;;;27.40;53.20;;;;;;5029962;28;20116;-52
2022/08/04 07:25:32;;;;;;;3.85;2.20;;;27.50;53.00;;;;;;5026257;28;20037;-51
2022/08/04 07:28:21;;;;;;;3.88;1.58;;;27.50;52.20;;;;;;5029262;28;20100;-49
2022/08/04 07:30:49;;;;;;;2.92;1.88;;;27.70;52.30;;;;;;5026717;28;20443;-49
2022/08/04 07:33:16;;;;;;;2.45;1.80;;;27.70;52.10;;;;;;5030059;28;20083;-52
2022/08/04 07:35:47;;;;;;;4.60;1.75;;;27.80;51.80;;;;;;5028510;28;20133;-49
2022/08/04 07:38:33;;;;;;;3.30;1.73;;;27.90;51.60;;;;;;5024817;28;20045;-52
2022/08/04 07:41:04;;;;;;;4.18;1.65;;;28.10;50.60;;;;;;5027675;28;20044;-50
2022/08/04 07:43:53;;;;;;;2.03;1.40;;;28.20;50.50;;;;;;5025472;28;20131;-50
2022/08/04 07:46:20;;;;;;;3.13;1.92;;;28.30;50.10;;;;;;5028120;28;20047;-50
2022/08/04 07:48:47;;;;;;;4.45;1.52;;;28.40;49.60;;;;;;5028407;28;20514;-48
2022/08/04 07:51:15;;;;;;;4.93;2.08;;;28.60;49.20;;;;;;5021959;28;20468;-52
2022/08/04 07:53:43;;;;;;;2.90;1.67;;;28.70;49.00;;;;;;5023968;28;20099;-53
2022/08/04 07:56:21;;;;;;;4.05;1.42;;;28.80;48.90;;;;;;5028448;28;20131;-52
2022/08/04 07:58:50;;;;;;;1.92;1.30;;;28.90;48.10;;;;;;5025458;28;20041;-53
2022/08/04 08:01:18;;;;;;;1.88;1.65;;;29.10;47.60;;;;;;5031540;28;20132;-52
2022/08/04 08:03:46;;;;;;;2.85;1.70;;;29.20;47.40;;;;;;5033046;28;20127;-51
2022/08/04 08:06:13;;;;;;;3.67;1.92;;;29.30;47.60;;;;;;5028077;28;20037;-52
2022/08/04 08:09:11;;;;;;;3.97;1.58;;;29.40;47.40;;;;;;5028714;28;20611;-52
2022/08/04 08:11:42;;;;;;;2.63;1.27;;;29.50;47.30;;;;;;5033023;28;20045;-49
2022/08/04 08:14:30;;;;;;;1.42;1.33;;;29.60;46.60;;;;;;5029982;28;20037;-48
2022/08/04 08:17:00;;;;;;;3.03;1.83;;;29.80;46.50;;;;;;5030305;28;20034;-52
2022/08/04 08:19:28;;;;;;;3.50;1.50;;;29.80;46.30;;;;;;5030843;28;20120;-52
2022/08/04 08:21:55;;;;;;;3.88;1.63;;;29.90;46.40;;;;;;5031697;28;20053;-52
2022/08/04 08:24:26;;;;;;;5.07;1.98;;;30.00;46.20;;;;;;5030726;28;20052;-52
2022/08/04 08:26:53;;;;;;;8.70;1.80;;;30.10;46.10;;;;;;5032110;28;20041;-52
2022/08/04 08:29:23;;;;;;;2.05;1.55;;;30.10;46.10;;;;;;5031462;28;20050;-48
2022/08/04 08:31:52;;;;;;;3.40;1.30;;;30.20;45.90;;;;;;5032326;28;20120;-49
2022/08/04 08:34:25;;;;;;;6.70;2.08;;;30.20;45.90;;;;;;5025408;28;20037;-52
2022/08/04 08:37:11;;;;;;;5.25;2.22;;;30.20;46.20;;;;;;5029963;28;20045;-52
2022/08/04 08:39:58;;;;;;;5.45;2.15;;;30.40;45.90;;;;;;5025794;28;20498;-52
2022/08/04 08:42:41;;;;;;;6.25;2.00;;;30.50;46.10;;;;;;5029669;28;20088;-53
2022/08/04 08:45:26;;;;;;;3.42;1.20;;;30.50;45.60;;;;;;5031992;28;20075;-51
2022/08/04 08:48:31;;;;;;;4.53;1.80;;;30.50;45.20;;;;;;5031813;28;20626;-51
2022/08/04 08:51:30;;;;;;;2.65;1.92;;;30.60;45.10;;;;;;5027616;28;20041;-50
2022/08/04 08:54:16;;;;;;;3.45;1.77;;;30.70;45.00;;;;;;5028139;28;20041;-52
2022/08/04 08:57:08;;;;;;;2.50;1.50;;;30.80;45.00;;;;;;5032019;28;20100;-52
2022/08/04 09:00:12;;;;;;;4.68;2.08;;;30.90;44.70;;;;;;5011970;28;20046;-53
2022/08/04 09:03:13;;;;;;;5.53;2.50;;;30.90;44.40;;;;;;5023583;28;20100;-52
2022/08/04 09:06:23;;;;;;;3.65;1.85;;;31.00;44.10;;;;;;5029983;28;20033;-52
2022/08/04 09:09:27;;;;;;;2.25;1.50;;;31.10;43.90;;;;;;4913992;29;20753;-53
2022/08/04 09:12:08;;;;;;;2.90;1.98;;;31.20;44.20;;;;;;5028534;28;20048;-49
2022/08/04 09:14:42;;;;;;;5.07;1.95;;;31.20;44.10;;;;;;5030563;28;20049;-52
2022/08/04 09:17:36;;;;;;;4.53;2.17;;;31.30;44.20;;;;;;5031906;28;20038;-52
2022/08/04 09:20:13;;;;;;;5.82;1.80;;;31.50;44.30;;;;;;5031769;28;20091;-52
2022/08/04 09:22:59;;;;;;;3.95;1.77;;;31.40;44.10;;;;;;5027197;28;20025;-52
2022/08/04 09:26:07;;;;;;;5.45;1.70;;;31.50;44.60;;;;;;5030161;28;20494;-52
2022/08/04 09:29:12;;;;;;;6.47;2.08;;;31.60;44.40;;;;;;4964436;28;20131;-53
2022/08/04 09:31:53;;;;;;;5.50;1.90;;;31.70;44.40;;;;;;4996284;28;20049;-49
2022/08/04 09:35:24;;;;;;;6.13;2.42;;;31.70;44.10;;;;;;5030363;28;20034;-51
2022/08/04 09:38:17;;;;;;;5.38;2.15;;;31.80;44.10;;;;;;4994181;28;20049;-49
2022/08/04 09:40:55;;;;;;;2.58;1.90;;;31.80;43.40;;;;;;5024959;28;20076;-53
2022/08/04 09:43:56;;;;;;;4.30;1.90;;;31.90;43.90;;;;;;5031484;28;20037;-53
2022/08/04 09:46:55;;;;;;;3.47;1.90;;;31.90;43.70;;;;;;5031597;28;20581;-52
2022/08/04 09:49:38;;;;;;;4.38;1.85;;;32.00;43.70;;;;;;5027934;28;20410;-52
2022/08/04 09:52:25;;;;;;;7.15;2.67;;;32.10;43.80;;;;;;5054450;22;20045;-54
2022/08/04 09:55:03;;;;;;;4.07;2.10;;;32.00;42.80;;;;;;4988935;28;20070;-48
2022/08/04 09:57:30;;;;;;;2.60;1.80;;;32.30;42.60;;;;;;4989577;28;20062;-49
2022/08/04 10:00:12;;;;;;;2.13;1.52;;;32.30;42.60;;;;;;4986699;28;20050;-48
2022/08/04 10:02:43;;;;;;;6.85;2.03;;;32.40;42.20;;;;;;4991354;28;20526;-47
2022/08/04 10:05:20;;;;;;;3.63;1.85;;;32.50;42.40;;;;;;4992686;28;20118;-47
2022/08/04 10:08:18;;;;;;;3.40;2.25;;;32.60;42.00;;;;;;4990979;28;20046;-48
2022/08/04 10:11:03;;;;;;;2.58;1.85;;;32.80;42.40;;;;;;5000871;28;20056;-46
2022/08/04 10:13:56;;;;;;;3.08;2.17;;;32.90;41.90;;;;;;4991152;28;20462;-53
2022/08/04 10:16:36;;;;;;;2.95;1.58;;;33.00;41.40;;;;;;4990610;28;20038;-48
2022/08/04 10:19:24;;;;;;;5.45;2.03;;;33.10;40.70;;;;;;5001006;28;20125;-56
2022/08/04 10:22:21;;;;;;;3.65;1.45;;;33.20;40.70;;;;;;5003910;28;20053;-48
2022/08/04 10:25:06;;;;;;;5.10;1.70;;;33.30;40.80;;;;;;4993063;28;20506;-55
2022/08/04 10:27:59;;;;;;;2.25;1.50;;;33.40;40.80;;;;;;4985000;28;20070;-49
2022/08/04 10:30:27;;;;;;;1.95;1.35;;;33.50;40.70;;;;;;4992709;28;20054;-50
2022/08/04 10:33:10;;;;;;;3.05;1.67;;;33.60;40.40;;;;;;4991150;28;20262;-49
2022/08/04 10:35:46;;;;;;;2.63;1.55;;;33.70;40.00;;;;;;4988848;28;20045;-52
2022/08/04 10:38:32;;;;;;;3.03;1.33;;;33.80;39.40;;;;;;5001563;28;20078;-52
2022/08/04 10:41:24;;;;;;;4.22;1.67;;;33.80;39.10;;;;;;5007724;28;20117;-54
2022/08/04 10:44:03;;;;;;;2.33;1.27;;;33.90;39.30;;;;;;5002848;28;20034;-51
2022/08/04 10:46:38;;;;;;;;;;;34.00;38.80;;;;;;4991835;28;20451;-51
2022/08/04 10:49:15;;;;;;;3.60;1.52;;;34.00;39.50;;;;;;4996175;28;19944;-50
2022/08/04 10:51:54;;;;;;;3.40;1.40;;;34.00;38.70;;;;;;4989611;28;20046;-51
2022/08/04 10:54:52;;;;;;;3.28;1.83;;;33.90;38.30;;;;;;4985623;28;20526;-50
2022/08/04 10:57:27;;;;;;;6.65;2.08;;;33.90;38.70;;;;;;4993249;28;20104;-49
2022/08/04 10:59:56;;;;;;;3.97;2.05;;;33.90;38.80;;;;;;5000777;28;20042;-52
2022/08/04 11:03:02;;;;;;;2.83;1.70;;;33.80;39.00;;;;;;4987964;28;20073;-53
2022/08/04 11:05:38;;;;;;;4.68;1.73;;;33.80;38.90;;;;;;4986563;28;20092;-49
2022/08/04 11:08:18;;;;;;;18.20;2.55;;;33.70;38.50;;;;;;4992988;28;20045;-54
2022/08/04 11:11:06;;;;;;;2.35;1.48;;;33.70;38.20;;;;;;4991331;28;20661;-55
2022/08/04 11:13:41;;;;;;;4.00;2.05;;;33.60;38.70;;;;;;4986556;28;20096;-51
2022/08/04 11:16:21;;;;;;;4.60;2.40;;;33.50;39.50;;;;;;4994361;28;20042;-49
2022/08/04 11:19:16;;;;;;;4.97;2.10;;;33.50;40.30;;;;;;4994002;28;20506;-51
2022/08/04 11:21:51;;;;;;;5.68;2.20;;;33.30;40.50;;;;;;4987014;28;20491;-50
2022/08/04 11:24:29;;;;;;;7.03;2.05;;;33.20;40.70;;;;;;4995253;28;20042;-52
2022/08/04 11:27:00;;;;;;;5.13;2.15;;;33.10;40.80;;;;;;4995348;28;20054;-52
2022/08/04 11:29:51;;;;;;;4.85;2.08;;;33.00;41.00;;;;;;4992143;28;20042;-52
2022/08/04 11:32:25;;;;;;;4.93;1.88;;;32.90;41.00;;;;;;4986599;28;20046;-50
2022/08/04 11:35:02;;;;;;;4.57;2.53;;;32.70;41.10;;;;;;4995063;28;20503;-51
2022/08/04 11:37:45;;;;;;;4.22;2.70;;;32.60;41.80;;;;;;4991547;28;20491;-49
2022/08/04 11:40:20;;;;;;;4.95;2.50;;;32.60;42.40;;;;;;4989548;28;20410;-52
2022/08/04 11:42:56;;;;;;;6.05;3.13;;;32.50;42.70;;;;;;4987400;28;20498;-53
2022/08/04 11:45:35;;;;;;;5.07;2.42;;;32.40;43.00;;;;;;4995327;28;20621;-52
2022/08/04 11:48:05;;;;;;;3.33;2.63;;;32.30;43.30;;;;;;4990764;28;20503;-51
2022/08/04 11:50:40;;;;;;;8.85;2.83;;;32.20;42.60;;;;;;4989613;28;20507;-53
2022/08/04 11:53:14;;;;;;;7.40;2.13;;;32.20;42.40;;;;;;4992605;28;20042;-51
2022/08/04 11:55:42;;;;;;;5.53;2.80;;;32.20;42.60;;;;;;4992366;28;20075;-50
2022/08/04 11:58:29;;;;;;;6.25;2.95;;;32.20;42.80;;;;;;4988167;28;20586;-50
2022/08/04 12:01:34;;;;;;;4.05;2.65;;;32.10;42.80;;;;;;4991016;28;20515;-52
2022/08/04 12:04:27;;;;;;;4.55;2.60;;;32.20;43.00;;;;;;4960611;28;20108;-50
2022/08/04 12:07:06;;;;;;;10.88;3.15;;;32.20;43.40;;;;;;4986856;28;20034;-53
2022/08/04 12:10:27;;;;;;;4.07;2.55;;;32.40;43.40;;;;;;4993236;28;20417;-53
2022/08/04 12:13:39;;;;;;;4.53;2.53;;;32.50;43.40;;;;;;4990622;28;20141;-52
2022/08/04 12:16:23;;;;;;;4.95;2.28;;;32.60;43.10;;;;;;4998719;28;20053;-51
2022/08/04 12:19:11;;;;;;;5.38;2.40;;;32.80;43.00;;;;;;4979616;28;20058;-52
2022/08/04 12:21:53;;;;;;;9.27;3.00;;;32.90;42.60;;;;;;4985175;28;20034;-47
2022/08/04 12:24:40;;;;;;;6.67;3.27;;;32.90;42.40;;;;;;4987490;28;20121;-54
2022/08/04 12:27:11;;;;;;;7.05;3.13;;;33.00;42.50;;;;;;4987937;28;20097;-50
2022/08/04 12:29:40;;;;;;;4.32;2.42;;;32.90;42.10;;;;;;4989068;28;20042;-56
2022/08/04 12:32:30;;;;;;;3.95;2.53;;;32.90;42.20;;;;;;4998275;28;20042;-53
2022/08/04 12:35:24;;;;;;;3.85;2.15;;;32.90;42.30;;;;;;4990445;28;20073;-51
2022/08/04 12:38:03;;;;;;;6.70;2.67;;;32.90;43.20;;;;;;4982837;28;20495;-53
2022/08/04 12:40:52;;;;;;;3.97;2.38;;;32.90;42.90;;;;;;4993859;28;20716;-53
2022/08/04 12:43:28;;;;;;;3.90;2.40;;;32.90;43.00;;;;;;4993687;28;20503;-55
2022/08/04 12:46:01;;;;;;;5.60;2.67;;;32.90;43.00;;;;;;4992613;28;20054;-53
2022/08/04 12:48:29;;;;;;;4.15;2.17;;;33.00;43.00;;;;;;4991685;28;20042;-50
2022/08/04 12:50:57;;;;;;;6.63;2.42;;;33.00;43.10;;;;;;4996723;28;20503;-50
2022/08/04 12:53:33;;;;;;;7.00;2.95;;;33.10;42.90;;;;;;4990809;28;20526;-50
2022/08/04 12:56:25;;;;;;;4.45;2.20;;;33.20;42.60;;;;;;4991912;28;20069;-51
2022/08/04 12:58:59;;;;;;;4.10;2.30;;;33.30;42.20;;;;;;4987995;28;20470;-55
2022/08/04 13:01:26;;;;;;;3.13;1.88;;;33.40;42.20;;;;;;4989043;28;20038;-54
2022/08/04 13:04:22;;;;;;;3.70;2.13;;;33.40;42.00;;;;;;4992985;28;20537;-51
2022/08/04 13:07:09;;;;;;;;;;;33.50;41.70;;;;;;4987095;28;20057;-50
2022/08/04 13:09:37;;;;;;;4.20;1.75;;;33.60;42.00;;;;;;4979163;28;19930;-52
2022/08/04 13:12:11;;;;;;;3.47;1.95;;;33.70;42.00;;;;;;4991402;28;20046;-51
2022/08/04 13:14:42;;;;;;;6.20;2.70;;;33.70;41.90;;;;;;4989969;28;20407;-50
2022/08/04 13:17:13;;;;;;;6.63;2.97;;;33.70;41.50;;;;;;4989029;28;20063;-55
2022/08/04 13:19:46;;;;;;;5.25;2.42;;;33.90;41.40;;;;;;4994211;28;20050;-53
2022/08/04 13:22:28;;;;;;;7.10;2.45;;;34.00;41.50;;;;;;4990563;28;20047;-58
2022/08/04 13:24:59;;;;;;;5.50;2.22;;;34.10;41.60;;;;;;4983059;28;20373;-56
2022/08/04 13:27:47;;;;;;;5.10;2.53;;;34.30;41.00;;;;;;5000462;28;20550;-55
2022/08/04 13:30:21;;;;;;;5.07;2.00;;;34.50;40.70;;;;;;4987456;28;20208;-51
2022/08/04 13:32:57;;;;;;;4.60;1.95;;;34.70;40.40;;;;;;4988220;28;20117;-51
2022/08/04 13:35:26;;;;;;;9.32;2.75;;;34.70;40.20;;;;;;4987314;28;20550;-51
2022/08/04 13:38:15;;;;;;;5.38;3.08;;;34.90;40.80;;;;;;4999237;28;20117;-51
2022/08/04 13:40:43;;;;;;;4.22;2.47;;;34.90;40.00;;;;;;5000538;28;20046;-54
2022/08/04 13:43:27;;;;;;;5.22;2.22;;;35.00;40.10;;;;;;4990410;28;20495;-50
2022/08/04 13:46:22;;;;;;;5.68;2.67;;;35.00;39.70;;;;;;4999995;28;20133;-54
2022/08/04 13:49:06;;;;;;;5.93;2.33;;;35.10;39.60;;;;;;5004662;28;20042;-50
2022/08/04 13:52:05;;;;;;;3.13;2.42;;;35.10;39.40;;;;;;4993601;28;20140;-51
2022/08/04 13:54:43;;;;;;;6.53;2.47;;;35.00;39.40;;;;;;4988252;28;20477;-52
2022/08/04 13:57:21;;;;;;;5.97;2.15;;;34.90;39.50;;;;;;4990035;28;20046;-49
2022/08/04 13:59:52;;;;;;;4.13;2.25;;;34.90;39.50;;;;;;4990170;28;20129;-53
2022/08/04 14:02:33;;;;;;;4.40;2.22;;;34.80;39.40;;;;;;4985526;28;20078;-53
2022/08/04 14:05:14;;;;;;;2.90;2.13;;;34.70;38.90;;;;;;5003970;28;20041;-53
2022/08/04 14:07:49;;;;;;;4.45;2.20;;;34.60;39.30;;;;;;4993530;28;20042;-55
2022/08/04 14:10:16;;;;;;;5.13;2.40;;;34.50;40.30;;;;;;4989326;28;20065;-54
2022/08/04 14:12:47;;;;;;;4.32;2.13;;;34.40;39.60;;;;;;4989246;28;20446;-56